La Guardia Airport New York US
ICAO: KLGA
IATA: LGA
Category: Large
Scheduled Services: Yes

Elevation: 21 ft
TransAlt. 18000 ft.

Airport Communications:
NEW YORK APP:118
NEW YORK APP:132.7
ATIS:125.95
CLNC DEL:121.875
NEW YORK DEP:120.4
GND:121.7
TWR:118.7
UNICOM:122.95

KLGA Zoom In..

Runways:

(A) RW 04 length 7001 ft width 150 ft
ILS 110.50 / hdg 44

(B) RW 13 length 7003 ft width 150 ft
ILS 108.50 / hdg 134

(C) RW 22 length 7001 ft width 150 ft
ILS 110.50 / hdg 224

(D) RW 31 length 7003 ft width 150 ft
LOC 108.50 / hdg 314

Location; KLGA
Day. 26 / Time. 03.51 Zulu
* Altimeter: 29.83
* Temperature: 26° c. 78.8°f.
* Wind from: 220° Speed 11 kn.
Dewpoint: 16° c.
Visibility: 10 Statute Miles.
Clouds: Few 25000 ft.

KLGA 260351Z 22011KT 10SM FEW250 26/16 A2983 RMK AO2 SLP102 T02610156


Wind From 220°
Speed 11 kn.

 
 
jpsmedia.com for Web Design SOUNDCLOUD worldairports.se 2018   terms of use